Time;durP1;ratioP1;P1;durP2;ratioP2;P2;SDS_P1;SDS_P2;PMS_P1;PMS_P2;Temp;Humidity;BMP_temperature;BMP_pressure;BME280_temperature;BME280_humidity;BME280_pressure;Samples;Min_cycle;Max_cycle;Signal;HPM_P1;HPM_P2
2023/12/01 00:00:39;;;;;;;18.80;14.83;;;5.50;99.90;;;;;;5017981;28;20597;-67
2023/12/01 00:03:05;;;;;;;17.50;14.20;;;5.40;99.90;;;;;;5020070;28;20213;-67
2023/12/01 00:05:31;;;;;;;19.30;13.43;;;5.40;99.90;;;;;;5018529;28;20525;-67
2023/12/01 00:07:56;;;;;;;23.50;16.93;;;5.40;99.90;;;;;;5011987;28;20719;-67
2023/12/01 00:10:22;;;;;;;19.53;14.43;;;5.40;99.90;;;;;;5012757;28;20187;-67
2023/12/01 00:12:47;;;;;;;17.97;13.80;;;5.30;99.90;;;;;;5017072;28;20689;-67
2023/12/01 00:15:13;;;;;;;22.83;16.77;;;5.30;99.90;;;;;;5012540;28;20233;-67
2023/12/01 00:17:38;;;;;;;19.27;14.27;;;5.30;99.90;;;;;;5018878;28;20232;-67
2023/12/01 00:20:05;;;;;;;22.27;14.27;;;5.30;99.90;;;;;;5018742;28;20213;-67
2023/12/01 00:22:30;;;;;;;22.40;15.50;;;5.30;99.90;;;;;;5014317;28;20250;-67
2023/12/01 00:24:56;;;;;;;18.80;13.80;;;5.30;99.90;;;;;;5016916;28;20435;-67
2023/12/01 00:27:21;;;;;;;23.47;16.67;;;5.30;99.90;;;;;;5017955;28;20185;-67
2023/12/01 00:29:47;;;;;;;23.70;16.37;;;5.30;99.90;;;;;;5017967;28;20227;-67
2023/12/01 00:32:13;;;;;;;21.13;15.57;;;5.30;99.90;;;;;;5023254;28;20207;-67
2023/12/01 00:34:38;;;;;;;22.50;15.40;;;5.30;99.90;;;;;;5016441;28;20204;-67
2023/12/01 00:37:30;;;;;;;18.00;15.07;;;5.20;99.90;;;;;;5017969;28;20997;-67
2023/12/01 00:39:56;;;;;;;25.10;15.87;;;5.20;99.90;;;;;;5021174;28;20203;-67
2023/12/01 00:42:21;;;;;;;24.00;14.47;;;5.20;99.90;;;;;;5015195;28;20427;-67
2023/12/01 00:44:47;;;;;;;23.30;16.73;;;5.20;99.90;;;;;;5015380;28;20189;-67
2023/12/01 00:47:12;;;;;;;26.83;18.07;;;5.20;99.90;;;;;;5010142;28;20189;-67
2023/12/01 00:49:38;;;;;;;24.13;16.67;;;5.20;99.90;;;;;;5015764;28;20208;-66
2023/12/01 00:52:04;;;;;;;22.63;14.83;;;5.10;99.90;;;;;;5022517;28;20187;-66
2023/12/01 00:54:30;;;;;;;25.57;15.47;;;5.10;99.90;;;;;;5011788;28;20201;-66
2023/12/01 00:56:55;;;;;;;20.20;14.60;;;5.10;99.90;;;;;;5017751;28;20177;-66
2023/12/01 00:59:21;;;;;;;19.37;14.83;;;5.10;99.90;;;;;;5023271;28;20439;-67
2023/12/01 01:01:47;;;;;;;21.17;17.07;;;5.10;99.90;;;;;;5011984;28;20181;-67
2023/12/01 01:04:13;;;;;;;21.33;16.43;;;5.10;99.90;;;;;;5017289;28;20561;-67
2023/12/01 01:06:38;;;;;;;21.90;16.00;;;5.10;99.90;;;;;;5019470;28;20435;-67
2023/12/01 01:09:04;;;;;;;20.30;15.50;;;5.10;99.90;;;;;;5015490;28;20213;-67
2023/12/01 01:11:30;;;;;;;23.43;15.23;;;5.10;99.90;;;;;;5018195;28;20662;-67
2023/12/01 01:13:59;;;;;;;22.63;16.93;;;5.10;99.90;;;;;;5021527;28;20200;-67
2023/12/01 01:16:24;;;;;;;20.10;15.93;;;5.10;99.90;;;;;;5015158;28;20177;-67
2023/12/01 01:18:50;;;;;;;21.03;15.87;;;5.10;99.90;;;;;;5020682;28;20960;-67
2023/12/01 01:21:16;;;;;;;25.47;19.20;;;5.10;99.90;;;;;;5018542;28;20234;-67
2023/12/01 01:23:42;;;;;;;22.17;15.90;;;5.10;99.90;;;;;;5014509;28;20224;-66
2023/12/01 01:26:07;;;;;;;22.10;16.23;;;5.10;99.90;;;;;;5018514;28;20476;-67
2023/12/01 01:28:33;;;;;;;24.80;16.90;;;5.10;99.90;;;;;;5017815;28;20349;-67
2023/12/01 01:30:59;;;;;;;21.83;15.73;;;5.10;99.90;;;;;;5018801;28;20184;-67
2023/12/01 01:33:24;;;;;;;24.87;18.27;;;5.10;99.90;;;;;;5016176;28;20342;-67
2023/12/01 01:35:50;;;;;;;26.63;16.70;;;5.10;99.90;;;;;;5019804;28;20697;-67
2023/12/01 01:38:15;;;;;;;21.30;15.83;;;5.10;99.90;;;;;;5015156;28;20185;-67
2023/12/01 01:40:42;;;;;;;23.50;17.37;;;5.10;99.90;;;;;;5019927;28;20319;-67
2023/12/01 01:43:08;;;;;;;24.90;16.43;;;5.10;99.90;;;;;;5021448;28;20584;-67
2023/12/01 01:45:33;;;;;;;26.00;16.57;;;5.10;99.90;;;;;;5017313;28;20449;-67
2023/12/01 01:47:59;;;;;;;23.27;15.63;;;5.00;99.90;;;;;;5017604;28;20851;-67
2023/12/01 01:50:26;;;;;;;24.83;17.27;;;5.00;99.90;;;;;;5019410;28;20184;-67
2023/12/01 01:52:54;;;;;;;26.97;17.70;;;5.00;99.90;;;;;;5014105;28;20440;-67
2023/12/01 01:55:20;;;;;;;25.90;17.17;;;5.10;99.90;;;;;;5023356;28;20423;-67
2023/12/01 01:57:47;;;;;;;26.47;17.17;;;5.10;99.90;;;;;;5020182;28;20438;-67
2023/12/01 02:00:16;;;;;;;21.50;15.77;;;5.10;99.90;;;;;;5018452;28;20183;-67
2023/12/01 02:02:42;;;;;;;26.30;17.90;;;5.10;99.90;;;;;;5018809;28;20486;-67
2023/12/01 02:05:13;;;;;;;29.33;19.40;;;5.10;99.90;;;;;;5010938;28;20416;-67
2023/12/01 02:07:39;;;;;;;25.80;18.13;;;5.10;99.90;;;;;;5014135;28;20508;-67
2023/12/01 02:10:06;;;;;;;26.20;18.10;;;5.10;99.90;;;;;;5018139;28;20471;-67
2023/12/01 02:12:32;;;;;;;29.50;18.03;;;5.10;99.90;;;;;;5016259;28;20447;-67
2023/12/01 02:14:57;;;;;;;24.57;17.50;;;5.10;99.90;;;;;;5014254;28;20858;-67
2023/12/01 02:17:23;;;;;;;24.37;17.63;;;5.10;99.90;;;;;;5011917;28;20679;-67
2023/12/01 02:19:51;;;;;;;26.00;18.57;;;5.10;99.90;;;;;;5018861;28;20195;-67
2023/12/01 02:22:17;;;;;;;27.73;19.43;;;5.10;99.90;;;;;;5015098;28;20283;-67
2023/12/01 02:24:42;;;;;;;29.77;18.90;;;5.10;99.90;;;;;;5010636;28;20531;-67
2023/12/01 02:27:08;;;;;;;28.97;18.70;;;5.10;99.90;;;;;;5015734;28;20188;-66
2023/12/01 02:29:33;;;;;;;25.63;18.20;;;5.10;99.90;;;;;;5013932;28;20620;-68
2023/12/01 02:31:59;;;;;;;28.60;19.50;;;5.10;99.90;;;;;;5015645;28;20180;-67
2023/12/01 02:34:25;;;;;;;27.43;19.10;;;5.10;99.90;;;;;;5014531;28;20311;-67
2023/12/01 02:36:51;;;;;;;29.93;20.20;;;5.10;99.90;;;;;;5019714;28;20631;-67
2023/12/01 02:39:17;;;;;;;31.13;19.20;;;5.10;99.90;;;;;;5016863;28;20435;-67
2023/12/01 02:41:43;;;;;;;32.23;19.60;;;5.10;99.90;;;;;;5015537;28;20192;-67
2023/12/01 02:44:09;;;;;;;31.27;19.87;;;5.10;99.90;;;;;;5018789;28;20463;-67
2023/12/01 02:46:34;;;;;;;33.27;21.17;;;5.10;99.90;;;;;;5017120;28;20447;-67
2023/12/01 02:49:00;;;;;;;27.50;19.27;;;5.10;99.90;;;;;;5013945;28;20219;-67
2023/12/01 02:51:26;;;;;;;32.17;21.80;;;5.10;99.90;;;;;;5020455;28;20669;-67
2023/12/01 02:53:51;;;;;;;32.20;20.40;;;5.10;99.90;;;;;;5016937;28;20200;-67
2023/12/01 02:56:18;;;;;;;31.90;20.10;;;5.10;99.90;;;;;;5013279;28;20623;-67
2023/12/01 02:58:43;;;;;;;33.27;21.00;;;5.10;99.90;;;;;;5014511;28;20314;-67
2023/12/01 03:01:09;;;;;;;34.47;22.10;;;5.10;99.90;;;;;;5015441;28;20466;-67
2023/12/01 03:03:34;;;;;;;31.53;20.73;;;5.10;99.90;;;;;;5011755;28;20227;-68
2023/12/01 03:06:00;;;;;;;31.07;20.70;;;5.10;99.90;;;;;;5015008;28;20185;-67
2023/12/01 03:08:26;;;;;;;31.33;20.30;;;5.00;99.90;;;;;;5014031;28;20217;-67
2023/12/01 03:10:53;;;;;;;31.40;20.27;;;5.10;99.90;;;;;;5017095;28;20223;-67
2023/12/01 03:13:19;;;;;;;30.40;21.53;;;5.00;99.90;;;;;;5017565;28;20196;-67
2023/12/01 03:15:44;;;;;;;27.40;19.87;;;5.00;99.90;;;;;;5018530;28;20506;-67
2023/12/01 03:18:10;;;;;;;31.57;21.70;;;5.00;99.90;;;;;;5014326;28;20650;-67
2023/12/01 03:20:36;;;;;;;32.87;21.97;;;5.00;99.90;;;;;;5015577;28;21103;-67
2023/12/01 03:23:01;;;;;;;33.70;20.00;;;5.00;99.90;;;;;;5017083;28;20204;-67
2023/12/01 03:25:27;;;;;;;34.47;21.50;;;5.00;99.90;;;;;;5014504;28;20189;-67
2023/12/01 03:27:52;;;;;;;35.27;20.93;;;4.90;99.90;;;;;;5017518;28;20540;-67
2023/12/01 03:30:19;;;;;;;33.60;21.40;;;4.90;99.90;;;;;;5017451;28;20183;-67
2023/12/01 03:32:49;;;;;;;35.00;21.43;;;4.90;99.90;;;;;;5015254;28;20731;-67
2023/12/01 03:35:17;;;;;;;32.60;19.63;;;4.90;99.90;;;;;;5018237;28;20451;-67
2023/12/01 03:37:44;;;;;;;31.90;20.87;;;4.90;99.90;;;;;;5017496;28;20630;-67
2023/12/01 03:40:13;;;;;;;30.13;20.30;;;4.80;99.90;;;;;;5015739;28;20452;-67
2023/12/01 03:42:44;;;;;;;31.60;21.47;;;4.80;99.90;;;;;;5019411;28;20738;-67
2023/12/01 03:45:12;;;;;;;32.00;20.40;;;4.70;99.90;;;;;;5013706;28;20538;-67
2023/12/01 03:47:38;;;;;;;30.30;19.90;;;4.70;99.90;;;;;;5015095;28;20470;-67
2023/12/01 03:50:04;;;;;;;37.23;22.30;;;4.70;99.90;;;;;;5017342;28;20451;-67
2023/12/01 03:52:30;;;;;;;31.03;19.90;;;4.70;99.90;;;;;;5021105;28;20411;-67
2023/12/01 03:54:58;;;;;;;29.87;20.60;;;4.70;99.90;;;;;;5019330;28;20419;-67
2023/12/01 03:57:27;;;;;;;30.23;19.43;;;4.70;99.90;;;;;;5021135;28;20419;-67
2023/12/01 03:59:53;;;;;;;29.20;19.40;;;4.70;99.90;;;;;;5017785;28;20437;-67
2023/12/01 04:02:19;;;;;;;32.73;20.87;;;4.70;99.90;;;;;;5017710;28;20501;-67
2023/12/01 04:04:44;;;;;;;31.00;20.10;;;4.60;99.90;;;;;;5018588;28;20423;-67
2023/12/01 04:07:10;;;;;;;30.47;19.97;;;4.60;99.90;;;;;;5019353;28;20188;-67
2023/12/01 04:09:36;;;;;;;28.80;19.60;;;4.60;99.90;;;;;;5019659;28;20197;-67
2023/12/01 04:12:01;;;;;;;25.07;18.30;;;4.60;99.90;;;;;;5021078;28;20185;-67
2023/12/01 04:14:29;;;;;;;29.40;18.77;;;4.60;99.90;;;;;;5020866;28;20624;-67
2023/12/01 04:16:55;;;;;;;31.77;20.20;;;4.60;99.90;;;;;;5017716;28;20197;-67
2023/12/01 04:19:21;;;;;;;27.13;19.40;;;4.60;99.90;;;;;;5024607;28;20410;-67
2023/12/01 04:21:46;;;;;;;24.43;17.60;;;4.60;99.90;;;;;;5016466;28;20196;-67
2023/12/01 04:24:12;;;;;;;29.07;18.13;;;4.60;99.90;;;;;;5014227;28;20231;-67
2023/12/01 04:26:37;;;;;;;26.10;18.20;;;4.60;99.90;;;;;;5019075;28;20184;-67
2023/12/01 04:29:03;;;;;;;26.20;18.30;;;4.60;99.90;;;;;;5018800;28;20205;-67
2023/12/01 04:31:28;;;;;;;27.73;19.40;;;4.60;99.90;;;;;;5019076;28;20201;-68
2023/12/01 04:33:55;;;;;;;26.37;17.93;;;4.60;99.90;;;;;;5015967;28;20276;-67
2023/12/01 04:36:20;;;;;;;26.40;17.33;;;4.60;99.90;;;;;;5014902;28;20173;-67
2023/12/01 04:38:46;;;;;;;27.90;19.80;;;4.50;99.90;;;;;;5021388;28;20484;-67
2023/12/01 04:41:11;;;;;;;23.73;17.13;;;4.60;99.90;;;;;;5023106;28;20192;-67
2023/12/01 04:43:39;;;;;;;29.27;20.00;;;4.50;99.90;;;;;;5026078;28;20204;-67
2023/12/01 04:46:05;;;;;;;29.10;20.40;;;4.50;99.90;;;;;;5017922;28;20264;-67
2023/12/01 04:48:31;;;;;;;32.13;19.73;;;4.50;99.90;;;;;;5021268;28;20462;-67
2023/12/01 04:50:57;;;;;;;32.17;19.37;;;4.50;99.90;;;;;;5017283;28;20436;-67
2023/12/01 04:53:22;;;;;;;25.70;18.63;;;4.50;99.90;;;;;;5015785;28;20286;-67
2023/12/01 04:55:48;;;;;;;27.10;19.50;;;4.50;99.90;;;;;;5021974;28;20195;-66
2023/12/01 04:58:14;;;;;;;28.20;19.53;;;4.50;99.90;;;;;;5021778;28;20196;-66
2023/12/01 05:00:40;;;;;;;28.33;17.93;;;4.50;99.90;;;;;;5017599;28;20267;-68
2023/12/01 05:03:07;;;;;;;27.83;19.37;;;4.50;99.90;;;;;;5018096;28;20459;-66
2023/12/01 05:05:34;;;;;;;28.20;19.73;;;4.50;99.90;;;;;;5018498;28;20431;-66
2023/12/01 05:08:01;;;;;;;26.93;19.00;;;4.50;99.90;;;;;;5016343;28;20535;-66
2023/12/01 05:10:31;;;;;;;26.17;19.40;;;4.50;99.90;;;;;;5017275;28;20813;-66
2023/12/01 05:12:58;;;;;;;30.60;19.80;;;4.50;99.90;;;;;;5018527;28;20498;-67
2023/12/01 05:15:25;;;;;;;31.40;19.17;;;4.50;99.90;;;;;;5019966;28;21190;-67
2023/12/01 05:18:00;;;;;;;25.67;17.77;;;4.50;99.90;;;;;;5018754;28;20581;-67
2023/12/01 05:20:29;;;;;;;25.57;18.83;;;4.50;99.90;;;;;;5014475;28;20505;-66
2023/12/01 05:22:58;;;;;;;25.93;18.10;;;4.50;99.90;;;;;;5014120;28;20524;-67
2023/12/01 05:25:28;;;;;;;28.27;18.07;;;4.50;99.90;;;;;;5015527;28;20435;-68
2023/12/01 05:27:57;;;;;;;26.47;18.47;;;4.50;99.90;;;;;;5017104;28;20458;-65
2023/12/01 05:30:28;;;;;;;26.10;18.30;;;4.50;99.90;;;;;;5020738;28;20443;-66
2023/12/01 05:32:55;;;;;;;23.63;16.00;;;4.50;99.90;;;;;;5017992;28;20547;-66
2023/12/01 05:35:21;;;;;;;25.10;17.80;;;4.50;99.90;;;;;;5018134;28;20474;-66
2023/12/01 05:37:49;;;;;;;28.20;17.97;;;4.50;99.90;;;;;;5014083;28;20435;-67
2023/12/01 05:40:16;;;;;;;24.80;17.53;;;4.50;99.90;;;;;;5020003;28;20419;-67
2023/12/01 05:42:43;;;;;;;24.47;18.03;;;4.50;99.90;;;;;;5017150;28;20965;-67
2023/12/01 05:45:13;;;;;;;28.93;19.57;;;4.50;99.90;;;;;;5015799;28;20443;-66
2023/12/01 05:47:42;;;;;;;25.70;18.27;;;4.50;99.90;;;;;;5017293;28;20491;-66
2023/12/01 05:50:16;;;;;;;24.27;18.13;;;4.50;99.90;;;;;;5013189;28;20947;-66
2023/12/01 05:52:43;;;;;;;27.60;18.43;;;4.40;99.90;;;;;;5015482;28;21024;-66
2023/12/01 05:55:20;;;;;;;31.30;20.40;;;4.40;99.90;;;;;;5018414;28;20462;-67
2023/12/01 05:57:47;;;;;;;27.00;19.90;;;4.40;99.90;;;;;;5015163;28;20418;-66
2023/12/01 06:00:15;;;;;;;26.90;19.30;;;4.40;99.90;;;;;;5016851;28;20420;-66
2023/12/01 06:02:42;;;;;;;27.00;19.07;;;4.40;99.90;;;;;;5018421;28;20462;-66
2023/12/01 06:05:08;;;;;;;26.70;18.67;;;4.40;99.90;;;;;;5019008;28;21277;-67
2023/12/01 06:07:36;;;;;;;31.37;19.97;;;4.40;99.90;;;;;;5015223;28;20464;-67
2023/12/01 06:10:02;;;;;;;32.10;19.27;;;4.40;99.90;;;;;;5011595;28;21099;-66
2023/12/01 06:12:28;;;;;;;29.03;17.93;;;4.40;99.90;;;;;;5018639;28;20434;-67
2023/12/01 06:14:53;;;;;;;25.20;17.17;;;4.30;99.90;;;;;;5015148;28;20443;-67
2023/12/01 06:17:19;;;;;;;26.70;18.83;;;4.30;99.90;;;;;;5018798;28;20192;-67
2023/12/01 06:19:44;;;;;;;27.73;17.60;;;4.30;99.90;;;;;;5014953;28;20262;-66
2023/12/01 06:22:10;;;;;;;26.83;18.17;;;4.30;99.90;;;;;;5019487;28;20184;-67
2023/12/01 06:24:36;;;;;;;23.10;17.77;;;4.30;99.90;;;;;;5019502;28;20285;-67
2023/12/01 06:27:04;;;;;;;23.13;16.50;;;4.30;99.90;;;;;;5016543;28;20199;-69
2023/12/01 06:29:30;;;;;;;24.50;17.93;;;4.40;99.90;;;;;;5025615;28;20200;-68
2023/12/01 06:31:56;;;;;;;24.90;17.57;;;4.30;99.90;;;;;;5019894;28;20415;-67
2023/12/01 06:34:22;;;;;;;24.13;16.80;;;4.30;99.90;;;;;;5014609;28;20542;-67
2023/12/01 06:36:47;;;;;;;24.63;17.20;;;4.30;99.90;;;;;;5015940;28;20448;-67
2023/12/01 06:39:13;;;;;;;24.47;17.43;;;4.30;99.90;;;;;;5016092;28;20933;-68
2023/12/01 06:41:40;;;;;;;24.33;16.83;;;4.30;99.90;;;;;;5019404;28;20271;-67
2023/12/01 06:44:05;;;;;;;21.10;16.33;;;4.30;99.90;;;;;;5019504;28;20431;-67
2023/12/01 06:46:31;;;;;;;21.47;15.90;;;4.30;99.90;;;;;;5016591;28;20457;-67
2023/12/01 06:48:57;;;;;;;23.47;16.63;;;4.30;99.90;;;;;;5012936;28;20228;-67
2023/12/01 06:51:22;;;;;;;22.40;16.00;;;4.30;99.90;;;;;;5010320;28;20176;-66
2023/12/01 06:53:48;;;;;;;24.90;18.20;;;4.30;99.90;;;;;;5022427;28;20196;-66
2023/12/01 06:56:13;;;;;;;26.50;16.87;;;4.20;99.90;;;;;;5015298;28;20176;-66
2023/12/01 06:58:39;;;;;;;24.77;18.37;;;4.30;99.90;;;;;;5015306;28;20184;-66
2023/12/01 07:01:05;;;;;;;24.90;17.87;;;4.30;99.90;;;;;;5012585;28;20211;-66
2023/12/01 07:03:31;;;;;;;24.80;16.93;;;4.30;99.90;;;;;;5018032;28;20218;-66
2023/12/01 07:05:56;;;;;;;25.10;17.30;;;4.20;99.90;;;;;;5015467;28;20431;-66
2023/12/01 07:08:22;;;;;;;22.73;16.83;;;4.30;99.90;;;;;;5016398;28;20204;-66
2023/12/01 07:10:47;;;;;;;25.03;17.47;;;4.30;99.90;;;;;;5016889;28;20176;-66
2023/12/01 07:13:13;;;;;;;28.20;18.97;;;4.30;99.90;;;;;;5021284;28;20812;-66
2023/12/01 07:15:39;;;;;;;25.50;18.73;;;4.30;99.90;;;;;;5018174;28;20188;-66
2023/12/01 07:18:04;;;;;;;28.93;16.80;;;4.30;99.90;;;;;;5017205;28;20183;-67
2023/12/01 07:20:33;;;;;;;29.30;18.50;;;4.20;99.90;;;;;;5015186;28;20191;-67
2023/12/01 07:22:59;;;;;;;25.53;18.27;;;4.30;99.90;;;;;;5019593;28;20742;-67
2023/12/01 07:25:25;;;;;;;26.90;17.37;;;4.30;99.90;;;;;;5017941;28;21135;-67
2023/12/01 07:28:02;;;;;;;27.57;18.20;;;4.30;99.90;;;;;;5015390;28;20432;-67
2023/12/01 07:30:28;;;;;;;24.83;16.90;;;4.30;99.90;;;;;;5022253;28;20457;-66
2023/12/01 07:32:55;;;;;;;23.57;17.03;;;4.30;99.90;;;;;;5025435;28;20438;-66
2023/12/01 07:35:21;;;;;;;28.00;18.60;;;4.30;99.90;;;;;;5017949;28;20478;-66
2023/12/01 07:37:48;;;;;;;23.20;17.37;;;4.30;99.90;;;;;;5021292;28;20423;-66
2023/12/01 07:40:21;;;;;;;25.63;18.80;;;4.30;99.90;;;;;;5015923;28;20550;-66
2023/12/01 07:42:48;;;;;;;26.27;18.30;;;4.30;99.90;;;;;;5017745;28;20442;-66
2023/12/01 07:45:17;;;;;;;25.60;17.80;;;4.40;99.90;;;;;;5023346;28;20426;-66
2023/12/01 07:47:43;;;;;;;24.40;18.60;;;4.40;99.90;;;;;;5018911;28;20435;-66
2023/12/01 07:50:09;;;;;;;22.63;17.20;;;4.40;99.90;;;;;;5019352;28;20917;-66
2023/12/01 07:52:34;;;;;;;30.07;18.80;;;4.40;99.90;;;;;;5018935;28;20569;-66
2023/12/01 07:55:00;;;;;;;31.20;19.70;;;4.40;99.90;;;;;;5016119;28;20566;-66
2023/12/01 07:57:25;;;;;;;25.50;18.47;;;4.40;99.90;;;;;;5020495;28;20204;-66
2023/12/01 07:59:51;;;;;;;30.73;19.20;;;4.40;99.90;;;;;;5015621;28;20193;-66
2023/12/01 08:02:17;;;;;;;30.73;19.37;;;4.40;99.90;;;;;;5015160;28;20435;-66
2023/12/01 08:04:42;;;;;;;28.47;19.03;;;4.40;99.90;;;;;;5021168;28;20222;-65
2023/12/01 08:07:08;;;;;;;30.63;19.23;;;4.40;99.90;;;;;;5019281;28;20227;-66
2023/12/01 08:09:34;;;;;;;30.73;22.13;;;4.40;99.90;;;;;;5022347;28;20209;-66
2023/12/01 08:12:00;;;;;;;28.20;18.53;;;4.40;99.90;;;;;;5019597;28;20188;-66
2023/12/01 08:14:26;;;;;;;34.83;22.77;;;4.50;99.90;;;;;;5025128;28;20574;-66
2023/12/01 08:16:54;;;;;;;25.40;18.10;;;4.50;99.90;;;;;;5018653;28;20434;-65
2023/12/01 08:19:20;;;;;;;29.70;19.60;;;4.50;99.90;;;;;;5014995;28;20185;-66
2023/12/01 08:21:45;;;;;;;33.17;20.73;;;4.40;99.90;;;;;;5018607;28;20430;-66
2023/12/01 08:24:11;;;;;;;31.10;21.90;;;4.50;99.90;;;;;;5024942;28;20232;-66
2023/12/01 08:26:37;;;;;;;29.13;20.97;;;4.50;99.90;;;;;;5023922;28;20195;-66
2023/12/01 08:29:03;;;;;;;28.57;18.37;;;4.50;99.90;;;;;;5022785;28;20462;-67
2023/12/01 08:31:30;;;;;;;28.50;19.23;;;4.50;99.90;;;;;;5025490;28;20554;-66
2023/12/01 08:33:59;;;;;;;30.97;21.67;;;4.50;99.90;;;;;;5018355;28;20462;-66
2023/12/01 08:36:25;;;;;;;33.20;20.50;;;4.50;99.90;;;;;;5015328;28;21686;-66
2023/12/01 08:38:51;;;;;;;25.97;18.77;;;4.50;99.90;;;;;;5026301;28;20427;-66
2023/12/01 08:41:17;;;;;;;27.60;18.83;;;4.50;99.90;;;;;;5022222;28;20180;-65
2023/12/01 08:43:42;;;;;;;29.20;19.70;;;4.60;99.90;;;;;;5021453;28;20457;-66
2023/12/01 08:46:08;;;;;;;28.73;21.10;;;4.70;99.90;;;;;;5020306;28;20193;-67
2023/12/01 08:48:34;;;;;;;28.93;19.60;;;4.70;99.90;;;;;;5025113;28;20216;-66
2023/12/01 08:51:00;;;;;;;30.00;20.07;;;4.80;99.90;;;;;;5024640;28;20188;-67
2023/12/01 08:53:26;;;;;;;28.57;20.10;;;4.80;99.90;;;;;;5014078;28;20460;-68
2023/12/01 08:55:51;;;;;;;27.27;17.77;;;4.90;99.90;;;;;;5019469;28;20278;-68
2023/12/01 08:58:22;;;;;;;28.90;19.23;;;5.00;99.90;;;;;;5021752;28;20210;-67
2023/12/01 09:00:48;;;;;;;29.67;19.97;;;5.00;99.90;;;;;;5019691;28;20188;-67
2023/12/01 09:03:13;;;;;;;28.70;19.50;;;5.10;99.90;;;;;;5019207;28;20452;-67
2023/12/01 09:05:39;;;;;;;29.73;20.43;;;5.10;99.90;;;;;;5022418;28;20264;-67
2023/12/01 09:08:05;;;;;;;30.83;20.20;;;5.00;99.90;;;;;;5017383;28;20201;-68
2023/12/01 09:10:32;;;;;;;29.47;20.80;;;5.10;99.90;;;;;;5018422;28;20703;-68
2023/12/01 09:12:57;;;;;;;29.83;20.20;;;5.10;99.90;;;;;;5019254;28;20559;-67
2023/12/01 09:15:23;;;;;;;30.87;21.70;;;5.10;99.90;;;;;;5024186;28;20415;-67
2023/12/01 09:17:49;;;;;;;36.30;23.37;;;5.00;99.90;;;;;;5020486;28;20431;-67
2023/12/01 09:20:15;;;;;;;35.50;22.37;;;5.00;99.90;;;;;;5022398;28;20256;-67
2023/12/01 09:22:41;;;;;;;41.53;24.93;;;5.00;99.90;;;;;;5020812;28;20439;-67
2023/12/01 09:25:07;;;;;;;37.30;23.30;;;4.90;99.90;;;;;;5021604;28;20184;-67
2023/12/01 09:27:33;;;;;;;32.07;21.60;;;4.90;99.90;;;;;;5020912;28;20850;-68
2023/12/01 09:29:58;;;;;;;34.77;22.07;;;5.00;99.90;;;;;;5018382;28;20490;-67
2023/12/01 09:32:24;;;;;;;34.00;22.53;;;5.00;99.90;;;;;;5016659;28;20398;-67
2023/12/01 09:34:50;;;;;;;32.10;22.77;;;5.00;99.90;;;;;;5018104;28;20657;-71
2023/12/01 09:37:16;;;;;;;34.87;22.17;;;5.00;99.90;;;;;;5016092;28;20222;-69
2023/12/01 09:39:41;;;;;;;38.90;23.30;;;5.10;99.90;;;;;;5020406;28;20522;-69
2023/12/01 09:42:08;;;;;;;35.57;19.60;;;5.10;99.90;;;;;;5020703;28;20185;-69
2023/12/01 09:44:34;;;;;;;35.47;20.90;;;5.10;99.90;;;;;;5014007;28;20238;-68
2023/12/01 09:47:02;;;;;;;37.37;20.90;;;5.10;99.90;;;;;;5016820;28;20422;-68
2023/12/01 09:49:32;;;;;;;33.30;19.83;;;5.10;99.90;;;;;;5017527;28;20458;-67
2023/12/01 09:51:58;;;;;;;31.13;19.67;;;5.10;99.90;;;;;;5019829;28;20494;-67
2023/12/01 09:54:23;;;;;;;36.03;21.10;;;5.20;99.90;;;;;;5019598;28;20526;-67
2023/12/01 09:56:51;;;;;;;34.53;20.73;;;5.20;99.90;;;;;;5018335;28;20196;-67
2023/12/01 09:59:17;;;;;;;34.97;21.70;;;5.20;99.90;;;;;;5018785;28;20294;-67
2023/12/01 10:01:47;;;;;;;36.00;20.33;;;5.20;99.90;;;;;;5013362;28;21064;-68
2023/12/01 10:04:12;;;;;;;30.90;20.47;;;5.20;99.90;;;;;;5014801;28;20451;-67
2023/12/01 10:06:39;;;;;;;40.10;22.27;;;5.20;99.90;;;;;;5014666;28;20426;-66
2023/12/01 10:09:09;;;;;;;35.70;23.77;;;5.20;99.90;;;;;;5022574;28;20216;-67
2023/12/01 10:11:36;;;;;;;40.10;22.47;;;5.20;99.90;;;;;;5018537;28;21023;-68
2023/12/01 10:14:08;;;;;;;40.20;23.90;;;5.20;99.90;;;;;;5021036;28;20455;-68
2023/12/01 10:16:35;;;;;;;36.13;22.90;;;5.20;99.90;;;;;;5014002;28;20419;-67
2023/12/01 10:19:04;;;;;;;33.33;22.50;;;5.20;99.90;;;;;;5020704;28;20785;-67
2023/12/01 10:21:46;;;;;;;39.13;22.87;;;5.30;99.90;;;;;;5016417;28;20439;-67
2023/12/01 10:24:23;;;;;;;33.87;22.33;;;5.30;99.90;;;;;;5016811;28;20463;-68
2023/12/01 10:26:53;;;;;;;34.90;22.03;;;5.30;99.90;;;;;;5018248;28;20494;-67
2023/12/01 10:29:30;;;;;;;33.83;19.90;;;5.30;99.90;;;;;;5015414;28;20562;-67
2023/12/01 10:31:57;;;;;;;29.17;19.50;;;5.40;99.90;;;;;;5017950;28;20430;-66
2023/12/01 10:34:23;;;;;;;31.23;20.80;;;5.40;99.90;;;;;;5013743;28;20504;-68
2023/12/01 10:36:52;;;;;;;39.63;20.77;;;5.40;99.90;;;;;;5015916;28;20428;-67
2023/12/01 10:39:21;;;;;;;37.00;23.43;;;5.40;99.90;;;;;;5018422;28;20467;-67
2023/12/01 10:41:47;;;;;;;34.50;22.23;;;5.40;99.90;;;;;;5016153;28;20485;-67
2023/12/01 10:44:18;;;;;;;39.40;22.70;;;5.40;99.90;;;;;;5016627;28;20439;-67
2023/12/01 10:46:47;;;;;;;39.83;22.37;;;5.40;99.90;;;;;;5016128;28;20427;-68
2023/12/01 10:49:17;;;;;;;33.97;20.90;;;5.40;99.90;;;;;;5019153;28;20808;-67
2023/12/01 10:51:44;;;;;;;39.03;23.00;;;5.40;99.90;;;;;;5013946;28;20427;-67
2023/12/01 10:54:11;;;;;;;36.63;23.40;;;5.40;99.90;;;;;;5014639;28;20430;-66
2023/12/01 10:57:12;;;;;;;36.70;22.03;;;5.30;99.90;;;;;;5019844;28;20469;-68
2023/12/01 10:59:38;;;;;;;35.50;23.17;;;5.40;99.90;;;;;;5016308;28;20548;-68
2023/12/01 11:02:05;;;;;;;35.70;20.00;;;5.30;99.90;;;;;;5014593;28;20428;-68
2023/12/01 11:04:33;;;;;;;36.80;22.13;;;5.30;99.90;;;;;;5016652;28;21053;-68
2023/12/01 11:07:23;;;;;;;34.83;21.50;;;5.30;99.90;;;;;;5014141;28;20514;-69
2023/12/01 11:09:58;;;;;;;37.90;21.40;;;5.40;99.90;;;;;;5016666;28;20964;-68
2023/12/01 11:13:03;;;;;;;37.80;21.80;;;5.40;99.90;;;;;;5015035;28;20459;-68
2023/12/01 11:15:31;;;;;;;36.40;22.30;;;5.40;99.90;;;;;;5010125;28;20427;-69
2023/12/01 11:17:57;;;;;;;32.03;21.03;;;5.40;99.90;;;;;;5018000;28;20427;-69
2023/12/01 11:20:41;;;;;;;34.00;20.73;;;5.40;99.90;;;;;;5012122;28;20454;-68
2023/12/01 11:23:10;;;;;;;34.93;22.90;;;5.40;99.90;;;;;;5016521;28;20213;-68
2023/12/01 11:25:53;;;;;;;35.10;22.40;;;5.40;99.90;;;;;;5011402;28;20434;-68
2023/12/01 11:31:34;;;;;;;33.47;21.30;;;5.40;99.90;;;;;;5013215;28;20415;-68
2023/12/01 11:34:01;;;;;;;37.77;22.90;;;5.50;99.90;;;;;;5020905;28;20489;-68
2023/12/01 11:36:34;;;;;;;37.47;21.63;;;5.50;99.90;;;;;;5018230;28;20404;-68
2023/12/01 11:41:48;;;;;;;33.30;22.33;;;5.50;99.90;;;;;;5017061;28;20424;-68
2023/12/01 11:44:30;;;;;;;40.30;22.93;;;5.50;99.90;;;;;;5025420;28;20447;-67
2023/12/01 11:47:00;;;;;;;34.67;22.47;;;5.50;99.90;;;;;;5023954;28;21003;-67
2023/12/01 11:49:30;;;;;;;35.33;21.30;;;5.50;99.90;;;;;;5018036;28;20478;-68
2023/12/01 11:51:59;;;;;;;37.77;21.50;;;5.50;99.90;;;;;;5015930;28;21121;-66
2023/12/01 11:54:25;;;;;;;39.03;24.33;;;5.50;99.90;;;;;;5019185;28;20592;-67
2023/12/01 11:56:55;;;;;;;35.90;22.30;;;5.60;99.90;;;;;;5015121;28;20435;-67
2023/12/01 11:59:21;;;;;;;34.50;21.40;;;5.60;99.90;;;;;;5013035;28;20185;-67
2023/12/01 12:01:47;;;;;;;36.90;21.80;;;5.50;99.90;;;;;;5022059;28;20415;-66
2023/12/01 12:04:16;;;;;;;36.20;22.53;;;5.60;99.90;;;;;;5025366;28;20501;-67
2023/12/01 12:06:45;;;;;;;37.77;21.83;;;5.50;99.90;;;;;;5015991;28;20231;-67
2023/12/01 12:09:17;;;;;;;40.63;23.87;;;5.50;99.90;;;;;;5014944;28;20459;-67
2023/12/01 12:11:47;;;;;;;36.83;22.03;;;5.50;99.90;;;;;;5021250;28;20433;-67
2023/12/01 12:14:13;;;;;;;39.07;22.07;;;5.50;99.90;;;;;;5021702;28;20500;-67
2023/12/01 12:16:39;;;;;;;38.27;22.60;;;5.50;99.90;;;;;;5021172;28;20426;-68
2023/12/01 12:19:05;;;;;;;40.80;21.67;;;5.50;99.90;;;;;;5017463;28;20208;-67
2023/12/01 12:21:32;;;;;;;42.70;25.00;;;5.50;99.90;;;;;;5014211;28;20443;-67
2023/12/01 12:23:59;;;;;;;37.80;24.20;;;5.50;99.90;;;;;;5019284;28;20206;-67
2023/12/01 12:26:27;;;;;;;40.57;23.37;;;5.50;99.90;;;;;;5018862;28;20492;-68
2023/12/01 12:29:02;;;;;;;34.70;21.90;;;5.50;99.90;;;;;;5021354;28;20457;-68
2023/12/01 12:31:35;;;;;;;32.80;19.90;;;5.50;99.90;;;;;;5021796;28;20418;-68
2023/12/01 12:34:06;;;;;;;38.70;23.30;;;5.50;99.90;;;;;;5022726;28;20839;-67
2023/12/01 12:36:34;;;;;;;45.13;25.07;;;5.50;99.90;;;;;;5012584;28;20447;-70
2023/12/01 12:39:03;;;;;;;38.77;23.50;;;5.50;99.90;;;;;;5016785;28;20419;-68
2023/12/01 12:41:31;;;;;;;36.10;22.73;;;5.50;99.90;;;;;;5018457;28;21023;-65